createdAt,value
2019-03-26T00:01:54.476Z,5.10
2019-03-26T00:04:22.868Z,6.27
2019-03-26T00:06:51.268Z,5.87
2019-03-26T00:09:19.659Z,5.23
2019-03-26T00:11:48.318Z,4.97
2019-03-26T00:14:16.703Z,6.33
2019-03-26T00:16:45.100Z,7.17
2019-03-26T00:19:13.589Z,6.80
2019-03-26T00:21:41.982Z,5.60
2019-03-26T00:24:10.533Z,6.07
2019-03-26T00:26:38.936Z,6.80
2019-03-26T00:29:07.344Z,5.50
2019-03-26T00:31:35.738Z,7.37
2019-03-26T00:34:04.193Z,7.37
2019-03-26T00:36:32.608Z,9.87
2019-03-26T00:39:01.093Z,8.10
2019-03-26T00:41:29.490Z,9.33
2019-03-26T00:43:57.882Z,10.00
2019-03-26T00:46:26.305Z,9.60
2019-03-26T00:48:54.704Z,8.87
2019-03-26T00:51:23.125Z,7.43
2019-03-26T00:53:51.521Z,6.60
2019-03-26T00:56:19.929Z,6.00
2019-03-26T00:58:48.323Z,5.53
2019-03-26T01:01:17.058Z,5.80
2019-03-26T01:03:45.458Z,6.33
2019-03-26T01:06:13.867Z,10.40
2019-03-26T01:08:42.266Z,14.33
2019-03-26T01:11:10.853Z,11.17
2019-03-26T01:13:39.264Z,7.17
2019-03-26T01:16:07.711Z,7.57
2019-03-26T01:18:36.101Z,7.97
2019-03-26T01:21:04.574Z,6.53
2019-03-26T01:23:32.969Z,7.37
2019-03-26T01:26:01.388Z,7.47
2019-03-26T01:28:29.793Z,8.03
2019-03-26T01:30:58.184Z,8.33
2019-03-26T01:33:26.597Z,9.57
2019-03-26T01:35:54.985Z,8.47
2019-03-26T01:38:23.408Z,7.97
2019-03-26T01:40:51.918Z,7.70
2019-03-26T01:43:20.335Z,8.57
2019-03-26T01:45:48.733Z,7.43
2019-03-26T01:48:17.146Z,5.80
2019-03-26T01:50:45.536Z,11.63
2019-03-26T01:53:13.972Z,6.73
2019-03-26T01:55:42.357Z,6.80
2019-03-26T01:58:10.780Z,6.10
2019-03-26T02:00:39.169Z,9.00
2019-03-26T02:03:07.584Z,6.63
2019-03-26T02:05:35.980Z,7.23
2019-03-26T02:08:04.501Z,7.03
2019-03-26T02:10:32.902Z,7.77
2019-03-26T02:13:01.404Z,6.97
2019-03-26T02:15:31.132Z,7.43
2019-03-26T02:18:00.246Z,9.63
2019-03-26T02:20:28.780Z,9.23
2019-03-26T02:22:57.386Z,8.73
2019-03-26T02:25:25.826Z,9.30
2019-03-26T02:27:54.305Z,8.00
2019-03-26T02:30:22.724Z,11.63
2019-03-26T02:32:51.166Z,8.83
2019-03-26T02:35:19.702Z,7.97
2019-03-26T02:37:48.098Z,9.63
2019-03-26T02:40:16.479Z,9.77
2019-03-26T02:42:44.888Z,8.47
2019-03-26T02:45:13.428Z,8.00
2019-03-26T02:47:41.828Z,7.63
2019-03-26T02:50:10.749Z,7.23
2019-03-26T02:52:39.140Z,9.10
2019-03-26T02:55:07.846Z,8.47
2019-03-26T02:57:36.407Z,7.50
2019-03-26T03:00:07.174Z,11.40
2019-03-26T03:02:35.635Z,14.53
2019-03-26T03:05:04.337Z,14.77
2019-03-26T03:07:32.740Z,17.50
2019-03-26T03:10:01.203Z,17.83
2019-03-26T03:12:29.610Z,17.63
2019-03-26T03:14:58.027Z,16.40
2019-03-26T03:17:26.418Z,15.70
2019-03-26T03:19:54.812Z,14.10
2019-03-26T03:22:23.294Z,13.20
2019-03-26T03:24:51.759Z,10.53
2019-03-26T03:27:20.150Z,12.40
2019-03-26T03:29:48.555Z,13.70
2019-03-26T03:32:16.969Z,15.30
2019-03-26T03:34:45.377Z,18.90
2019-03-26T03:37:13.789Z,17.37
2019-03-26T03:39:42.186Z,13.70
2019-03-26T03:42:10.737Z,13.07
2019-03-26T03:44:39.206Z,11.30
2019-03-26T03:47:08.149Z,10.30
2019-03-26T03:49:37.092Z,9.67
2019-03-26T03:52:05.968Z,9.10
2019-03-26T03:54:36.511Z,10.03
2019-03-26T03:57:06.139Z,9.77
2019-03-26T03:59:34.817Z,32.97
2019-03-26T04:02:03.330Z,14.70
2019-03-26T04:04:31.776Z,12.17
2019-03-26T04:07:00.253Z,13.10
2019-03-26T04:09:28.661Z,13.13
2019-03-26T04:11:57.060Z,12.37
2019-03-26T04:14:25.454Z,12.63
2019-03-26T04:16:53.849Z,11.80
2019-03-26T04:19:22.280Z,10.60
2019-03-26T04:21:50.681Z,11.00
2019-03-26T04:24:19.140Z,12.77
2019-03-26T04:28:35.014Z,13.83
2019-03-26T04:31:03.500Z,15.37
2019-03-26T04:33:31.906Z,10.50
2019-03-26T04:36:00.295Z,11.20
2019-03-26T04:38:28.715Z,10.97
2019-03-26T04:40:57.227Z,11.57
2019-03-26T04:43:25.691Z,12.77
2019-03-26T04:45:54.065Z,12.07
2019-03-26T04:48:22.488Z,12.83
2019-03-26T04:50:50.895Z,10.40
2019-03-26T04:53:19.323Z,9.87
2019-03-26T04:55:47.717Z,9.87
2019-03-26T04:58:16.121Z,11.07
2019-03-26T05:00:44.587Z,8.77
2019-03-26T05:03:13.056Z,8.87
2019-03-26T05:05:41.459Z,9.57
2019-03-26T05:08:09.859Z,8.00
2019-03-26T05:10:38.262Z,8.57
2019-03-26T05:13:06.667Z,9.70
2019-03-26T05:15:35.093Z,11.20
2019-03-26T05:18:03.549Z,10.13
2019-03-26T05:20:31.959Z,10.77
2019-03-26T05:23:00.368Z,13.17
2019-03-26T05:25:28.847Z,18.50
2019-03-26T05:27:57.253Z,11.50
2019-03-26T05:30:25.765Z,21.67
2019-03-26T05:32:54.240Z,12.87
2019-03-26T05:35:22.722Z,12.13
2019-03-26T05:37:51.216Z,9.90
2019-03-26T05:40:19.602Z,14.40
2019-03-26T05:42:48.076Z,11.27
2019-03-26T05:45:16.488Z,13.07
2019-03-26T05:47:44.891Z,12.40
2019-03-26T05:50:15.212Z,14.67
2019-03-26T05:52:43.644Z,22.03
2019-03-26T05:55:12.317Z,16.07
2019-03-26T05:57:40.806Z,16.30
2019-03-26T06:00:13.806Z,14.50
2019-03-26T06:02:42.290Z,12.87
2019-03-26T06:05:13.983Z,17.37
2019-03-26T06:07:42.377Z,16.33
2019-03-26T06:10:11.224Z,17.87
2019-03-26T06:12:39.704Z,19.07
2019-03-26T06:15:10.357Z,19.00
2019-03-26T06:17:38.842Z,15.67
2019-03-26T06:20:08.183Z,31.17
2019-03-26T06:22:36.578Z,31.40
2019-03-26T06:25:07.650Z,15.00
2019-03-26T06:27:36.108Z,14.10
2019-03-26T06:30:07.186Z,17.93
2019-03-26T06:32:35.600Z,14.40
2019-03-26T06:35:08.750Z,14.77
2019-03-26T06:37:37.339Z,13.90
2019-03-26T06:40:09.784Z,18.53
2019-03-26T06:42:38.272Z,16.63
2019-03-26T06:45:08.412Z,18.30
2019-03-26T06:47:36.921Z,16.10
2019-03-26T06:50:10.247Z,16.17
2019-03-26T06:52:39.060Z,15.17
2019-03-26T06:55:08.215Z,15.90
2019-03-26T06:57:37.061Z,14.17
2019-03-26T07:00:11.196Z,12.17
2019-03-26T07:02:39.670Z,13.30
2019-03-26T07:05:08.805Z,12.27
2019-03-26T07:07:37.201Z,14.07
2019-03-26T07:10:07.943Z,12.03
2019-03-26T07:12:36.447Z,14.70
2019-03-26T07:15:07.651Z,13.63
2019-03-26T07:17:36.142Z,13.43
2019-03-26T07:20:07.390Z,16.30
2019-03-26T07:22:35.815Z,18.13
2019-03-26T07:25:06.511Z,15.70
2019-03-26T07:27:34.922Z,22.13
2019-03-26T07:30:03.978Z,14.95
2019-03-26T07:32:32.388Z,15.32
2019-03-26T07:35:00.827Z,14.35
2019-03-26T07:37:29.234Z,9.98
2019-03-26T07:39:57.830Z,8.90
2019-03-26T07:42:26.238Z,6.67
2019-03-26T07:44:54.743Z,6.58
2019-03-26T07:47:23.217Z,6.70
2019-03-26T07:49:51.742Z,5.00
2019-03-26T07:52:20.153Z,4.60
2019-03-26T07:54:48.556Z,6.62
2019-03-26T07:57:17.036Z,4.37
2019-03-26T07:59:45.474Z,3.60
2019-03-26T08:02:13.969Z,3.22
2019-03-26T08:04:42.365Z,6.17
2019-03-26T08:07:10.773Z,6.33
2019-03-26T08:09:39.167Z,7.10
2019-03-26T08:12:07.578Z,4.83
2019-03-26T08:14:36.104Z,3.70
2019-03-26T08:17:04.624Z,10.78
2019-03-26T08:19:33.085Z,10.85
2019-03-26T08:22:01.517Z,3.45
2019-03-26T08:24:32.047Z,3.95
2019-03-26T08:27:00.448Z,2.83
2019-03-26T08:29:28.853Z,3.85
2019-03-26T08:31:57.304Z,4.17
2019-03-26T08:34:25.783Z,4.33
2019-03-26T08:36:54.194Z,4.90
2019-03-26T08:39:22.623Z,3.90
2019-03-26T08:41:51.031Z,6.30
2019-03-26T08:44:19.449Z,4.83
2019-03-26T08:46:47.883Z,3.30
2019-03-26T08:49:16.283Z,3.63
2019-03-26T08:51:44.743Z,6.33
2019-03-26T08:54:13.158Z,4.13
2019-03-26T08:56:41.566Z,4.33
2019-03-26T08:59:10.030Z,4.37
2019-03-26T09:01:38.568Z,5.33
2019-03-26T09:04:07.047Z,2.53
2019-03-26T09:06:35.698Z,4.70
2019-03-26T09:09:06.549Z,2.87
2019-03-26T09:11:34.943Z,2.40
2019-03-26T09:14:03.508Z,2.83
2019-03-26T09:16:32.070Z,3.10
2019-03-26T09:19:00.517Z,4.50
2019-03-26T09:21:29.008Z,3.00
2019-03-26T09:23:57.425Z,4.53
2019-03-26T09:26:25.821Z,4.27
2019-03-26T09:28:54.235Z,2.93
2019-03-26T09:31:22.795Z,3.87
2019-03-26T09:33:51.203Z,3.63
2019-03-26T09:36:19.693Z,4.70
2019-03-26T09:38:48.176Z,3.10
2019-03-26T09:41:16.579Z,3.93
2019-03-26T09:43:44.985Z,4.43
2019-03-26T09:46:13.456Z,5.17
2019-03-26T09:48:41.928Z,2.67
2019-03-26T09:51:10.942Z,4.30
2019-03-26T09:53:39.500Z,2.20
2019-03-26T09:56:07.913Z,2.10
2019-03-26T09:58:36.300Z,4.83
2019-03-26T10:01:04.893Z,2.33
2019-03-26T10:03:33.356Z,4.20
2019-03-26T10:06:01.870Z,4.90
2019-03-26T10:08:30.361Z,3.40
2019-03-26T10:10:58.836Z,3.37
2019-03-26T10:13:27.240Z,6.20
2019-03-26T10:15:55.672Z,2.13
2019-03-26T10:18:24.178Z,3.90
2019-03-26T10:20:52.613Z,3.67
2019-03-26T10:23:21.016Z,3.43
2019-03-26T10:25:49.513Z,3.10
2019-03-26T10:28:17.914Z,2.30
2019-03-26T10:30:46.410Z,3.60
2019-03-26T10:33:14.794Z,3.33
2019-03-26T10:35:43.291Z,2.53
2019-03-26T10:38:11.719Z,2.63
2019-03-26T10:40:40.390Z,4.03
2019-03-26T10:43:08.935Z,5.93
2019-03-26T10:45:37.405Z,2.97
2019-03-26T10:48:05.968Z,2.60
2019-03-26T10:50:34.375Z,1.90
2019-03-26T10:53:02.830Z,2.43
2019-03-26T10:55:31.368Z,2.63
2019-03-26T10:57:59.807Z,4.63
2019-03-26T11:00:28.278Z,3.93
2019-03-26T11:02:56.739Z,3.93
2019-03-26T11:05:25.520Z,4.17
2019-03-26T11:07:53.991Z,3.07
2019-03-26T11:10:22.401Z,2.90
2019-03-26T11:12:50.819Z,4.33
2019-03-26T11:15:38.559Z,6.93
2019-03-26T11:18:07.237Z,3.33
2019-03-26T11:20:35.676Z,4.23
2019-03-26T11:23:04.164Z,3.87
2019-03-26T11:25:32.659Z,5.03
2019-03-26T11:28:01.098Z,7.93
2019-03-26T11:30:29.659Z,5.67
2019-03-26T11:32:58.180Z,7.90
2019-03-26T11:35:26.663Z,5.90
2019-03-26T11:37:55.140Z,6.55
2019-03-26T11:40:23.605Z,4.50
2019-03-26T11:42:52.064Z,7.55
2019-03-26T11:45:20.711Z,7.40
2019-03-26T11:47:50.664Z,7.07
2019-03-26T11:50:19.304Z,11.12
2019-03-26T11:52:47.833Z,7.03
2019-03-26T11:55:16.466Z,10.63
2019-03-26T11:57:45.013Z,6.80
2019-03-26T12:00:17.071Z,7.97
2019-03-26T12:02:45.488Z,8.93
2019-03-26T12:05:14.033Z,8.47
2019-03-26T12:07:43.059Z,8.47
2019-03-26T12:10:13.225Z,8.93
2019-03-26T12:12:41.719Z,8.97
2019-03-26T12:15:11.741Z,8.40
2019-03-26T12:17:40.140Z,10.67
2019-03-26T12:20:08.754Z,10.40
2019-03-26T12:22:37.265Z,10.27
2019-03-26T12:25:07.109Z,12.90
2019-03-26T12:33:32.422Z,11.60
2019-03-26T12:42:35.774Z,11.90
2019-03-26T12:45:07.205Z,11.10
2019-03-26T12:47:35.770Z,13.07
2019-03-26T12:50:06.753Z,11.13
2019-03-26T12:52:35.158Z,9.70
2019-03-26T12:55:03.785Z,9.97
2019-03-26T12:57:32.142Z,15.47
2019-03-26T13:00:00.578Z,11.67
2019-03-26T13:02:29.148Z,13.33
2019-03-26T13:04:58.597Z,11.67
2019-03-26T13:07:27.070Z,10.70
2019-03-26T13:09:55.560Z,12.53
2019-03-26T13:12:23.954Z,9.20
2019-03-26T13:14:52.369Z,11.20
2019-03-26T13:17:20.825Z,11.20
2019-03-26T13:22:17.475Z,13.47
2019-03-26T13:24:45.866Z,14.00
2019-03-26T13:27:14.351Z,14.53
2019-03-26T13:29:42.796Z,18.40
2019-03-26T13:32:13.009Z,14.63
2019-03-26T13:34:41.362Z,11.87
2019-03-26T13:37:09.778Z,13.00
2019-03-26T13:39:38.227Z,12.57
2019-03-26T13:42:06.703Z,13.67
2019-03-26T13:44:35.193Z,12.07
2019-03-26T13:47:03.696Z,14.30
2019-03-26T13:49:32.130Z,12.97
2019-03-26T13:52:00.559Z,13.13
2019-03-26T13:54:28.951Z,12.57
2019-03-26T13:56:57.429Z,12.50
2019-03-26T13:59:25.845Z,12.03
2019-03-26T14:01:54.246Z,12.83
2019-03-26T14:04:22.673Z,13.20
2019-03-26T14:06:52.543Z,13.83
2019-03-26T14:09:21.342Z,14.37
2019-03-26T14:11:49.836Z,12.73
2019-03-26T14:14:18.262Z,13.63
2019-03-26T14:16:46.676Z,12.97
2019-03-26T14:19:15.148Z,14.87
2019-03-26T14:21:43.542Z,14.77
2019-03-26T14:24:13.476Z,14.47
2019-03-26T14:26:42.024Z,12.77
2019-03-26T14:29:10.639Z,12.87
2019-03-26T14:31:39.041Z,13.30
2019-03-26T14:34:07.486Z,15.40
2019-03-26T14:36:35.959Z,13.73
2019-03-26T14:39:07.452Z,11.97
2019-03-26T14:41:35.869Z,13.20
2019-03-26T14:44:04.357Z,15.07
2019-03-26T14:46:32.791Z,12.90
2019-03-26T14:49:01.264Z,14.40
2019-03-26T14:51:29.700Z,12.37
2019-03-26T14:53:58.132Z,12.63
2019-03-26T14:56:26.580Z,12.70
2019-03-26T14:58:54.980Z,15.43
2019-03-26T15:01:23.488Z,15.37
2019-03-26T15:03:51.934Z,15.23
2019-03-26T15:06:20.406Z,16.43
2019-03-26T15:08:48.970Z,13.80
2019-03-26T15:11:17.399Z,13.17
2019-03-26T15:13:49.236Z,12.47
2019-03-26T15:16:16.076Z,14.50
2019-03-26T15:18:44.569Z,12.30
2019-03-26T15:21:13.071Z,15.17
2019-03-26T15:23:41.498Z,16.07
2019-03-26T15:26:10.010Z,16.13
2019-03-26T15:28:38.434Z,14.70
2019-03-26T15:31:06.971Z,15.73
2019-03-26T15:33:35.437Z,15.90
2019-03-26T15:36:04.004Z,15.20
2019-03-26T15:38:32.463Z,13.90
2019-03-26T15:41:20.950Z,14.63
2019-03-26T15:43:39.794Z,11.70
2019-03-26T15:46:11.494Z,17.27
2019-03-26T15:48:39.918Z,14.83
2019-03-26T15:51:08.409Z,15.03
2019-03-26T15:53:36.852Z,14.43
2019-03-26T15:56:05.408Z,13.63
2019-03-26T15:58:33.828Z,13.53
2019-03-26T16:01:02.336Z,11.80
2019-03-26T16:03:30.794Z,14.87
2019-03-26T16:05:59.194Z,14.50
2019-03-26T16:08:27.683Z,13.30
2019-03-26T16:10:56.182Z,16.30
2019-03-26T16:13:24.612Z,13.97
2019-03-26T16:15:53.042Z,15.03
2019-03-26T16:18:21.474Z,13.50
2019-03-26T16:20:49.882Z,13.13
2019-03-26T16:23:18.331Z,17.23
2019-03-26T16:25:46.727Z,19.03
2019-03-26T16:28:15.160Z,16.30
2019-03-26T16:30:43.559Z,14.53
2019-03-26T16:33:12.077Z,16.73
2019-03-26T16:35:40.677Z,18.07
2019-03-26T16:38:09.196Z,15.37
2019-03-26T16:40:38.819Z,16.43
2019-03-26T16:43:07.213Z,18.37
2019-03-26T16:45:35.622Z,17.30
2019-03-26T16:48:04.115Z,13.93
2019-03-26T16:50:32.650Z,17.17
2019-03-26T16:53:01.057Z,17.47
2019-03-26T16:55:29.463Z,15.40
2019-03-26T16:57:58.223Z,19.00
2019-03-26T17:00:31.278Z,15.33
2019-03-26T17:03:00.429Z,18.07
2019-03-26T17:05:28.962Z,19.37
2019-03-26T17:07:57.496Z,15.33
2019-03-26T17:10:25.898Z,14.83
2019-03-26T17:12:54.327Z,18.50
2019-03-26T17:15:22.820Z,14.50
2019-03-26T17:17:51.234Z,16.73
2019-03-26T17:20:19.681Z,18.17
2019-03-26T17:22:48.088Z,18.60
2019-03-26T17:25:16.509Z,14.27
2019-03-26T17:27:44.997Z,16.23
2019-03-26T17:30:13.673Z,16.33
2019-03-26T17:32:42.079Z,18.37
2019-03-26T17:35:10.646Z,23.27
2019-03-26T17:37:39.055Z,19.33
2019-03-26T17:40:07.621Z,20.13
2019-03-26T17:42:36.094Z,18.77
2019-03-26T17:45:06.454Z,18.50
2019-03-26T17:47:35.038Z,16.73
2019-03-26T17:50:04.613Z,17.37
2019-03-26T17:52:33.021Z,15.67
2019-03-26T17:55:01.437Z,18.77
2019-03-26T17:57:29.865Z,19.33
2019-03-26T17:59:58.349Z,14.53
2019-03-26T18:02:26.860Z,17.70
2019-03-26T18:04:55.803Z,18.43
2019-03-26T18:07:24.295Z,19.50
2019-03-26T18:09:52.713Z,20.27
2019-03-26T18:12:30.637Z,17.87
2019-03-26T18:14:51.327Z,27.50
2019-03-26T18:17:19.737Z,20.37
2019-03-26T18:19:48.138Z,24.97
2019-03-26T18:22:16.585Z,19.63
2019-03-26T18:24:44.978Z,17.67
2019-03-26T18:27:13.393Z,22.77
2019-03-26T18:29:41.822Z,25.53
2019-03-26T18:32:10.249Z,19.33
2019-03-26T18:34:38.661Z,21.27
2019-03-26T18:37:07.146Z,19.93
2019-03-26T18:39:35.593Z,23.60
2019-03-26T18:42:04.141Z,24.23
2019-03-26T18:44:32.591Z,26.07
2019-03-26T18:47:01.051Z,25.03
2019-03-26T18:49:29.469Z,27.63
2019-03-26T18:51:57.996Z,26.23
2019-03-26T18:54:26.410Z,24.70
2019-03-26T18:56:54.836Z,26.03
2019-03-26T18:59:23.303Z,29.13
2019-03-26T19:01:51.732Z,28.80
2019-03-26T19:04:20.176Z,27.57
2019-03-26T19:06:48.639Z,25.93
2019-03-26T19:09:17.040Z,27.27
2019-03-26T19:11:45.473Z,24.97
2019-03-26T19:14:13.859Z,28.87
2019-03-26T19:16:42.324Z,22.37
2019-03-26T19:19:10.763Z,32.40
2019-03-26T19:21:39.233Z,34.33
2019-03-26T19:24:07.657Z,28.67
2019-03-26T19:26:36.086Z,27.50
2019-03-26T19:29:04.597Z,24.10
2019-03-26T19:31:32.996Z,27.00
2019-03-26T19:34:01.414Z,31.50
2019-03-26T19:36:29.865Z,33.27
2019-03-26T19:38:58.419Z,37.17
2019-03-26T19:41:26.943Z,34.20
2019-03-26T19:43:55.416Z,30.83
2019-03-26T19:46:23.909Z,25.97
2019-03-26T19:48:52.299Z,26.07
2019-03-26T19:51:20.751Z,21.13
2019-03-26T19:53:49.177Z,21.47
2019-03-26T19:56:17.695Z,22.17
2019-03-26T19:58:46.146Z,30.00
2019-03-26T20:01:14.646Z,27.50
2019-03-26T20:03:43.153Z,25.03
2019-03-26T20:06:13.733Z,27.27
2019-03-26T20:08:41.876Z,27.77
2019-03-26T20:11:10.390Z,26.33
2019-03-26T20:13:38.917Z,24.80
2019-03-26T20:16:07.440Z,24.53
2019-03-26T20:18:35.853Z,26.10
2019-03-26T20:21:04.591Z,23.77
2019-03-26T20:23:33.156Z,25.77
2019-03-26T20:26:01.625Z,38.83
2019-03-26T20:28:30.020Z,27.90
2019-03-26T20:30:58.490Z,24.23
2019-03-26T20:33:26.915Z,22.30
2019-03-26T20:35:55.327Z,29.13
2019-03-26T20:38:23.747Z,25.43
2019-03-26T20:40:52.408Z,29.90
2019-03-26T20:43:20.839Z,28.57
2019-03-26T20:45:49.290Z,28.00
2019-03-26T20:48:17.931Z,27.37
2019-03-26T20:50:46.444Z,27.47
2019-03-26T20:53:14.961Z,26.77
2019-03-26T20:55:53.860Z,26.83
2019-03-26T20:58:13.705Z,25.13
2019-03-26T21:03:35.031Z,25.43
2019-03-26T21:06:03.615Z,31.27
2019-03-26T21:08:32.092Z,26.57
2019-03-26T21:11:00.657Z,27.97
2019-03-26T21:13:29.124Z,23.80
2019-03-26T21:15:57.825Z,25.17
2019-03-26T21:18:26.284Z,28.07
2019-03-26T21:20:54.776Z,25.43
2019-03-26T21:23:23.374Z,25.60
2019-03-26T21:25:51.849Z,27.17
2019-03-26T21:28:20.320Z,28.83
2019-03-26T21:30:48.870Z,23.23
2019-03-26T21:33:17.296Z,24.90
2019-03-26T21:35:45.810Z,28.07
2019-03-26T21:38:14.292Z,29.37
2019-03-26T21:40:42.766Z,28.23
2019-03-26T21:43:11.251Z,27.10
2019-03-26T21:45:40.321Z,25.37
2019-03-26T21:48:09.096Z,27.10
2019-03-26T21:50:37.681Z,24.07
2019-03-26T21:53:06.236Z,22.30
2019-03-26T21:55:34.796Z,23.03
2019-03-26T21:58:03.555Z,24.73
2019-03-26T22:00:31.995Z,24.67
2019-03-26T22:03:00.533Z,21.60
2019-03-26T22:05:28.966Z,27.53
2019-03-26T22:07:57.454Z,22.97
2019-03-26T22:10:25.916Z,21.53
2019-03-26T22:12:54.331Z,21.10
2019-03-26T22:15:22.823Z,22.27
2019-03-26T22:17:51.254Z,19.00
2019-03-26T22:20:19.826Z,19.40
2019-03-26T22:22:48.278Z,19.47
2019-03-26T22:25:16.853Z,21.93
2019-03-26T22:27:45.293Z,20.83
2019-03-26T22:30:14.451Z,19.77
2019-03-26T22:32:42.868Z,20.70
2019-03-26T22:35:11.742Z,21.80
2019-03-26T22:37:40.229Z,21.43
2019-03-26T22:40:09.297Z,23.07
2019-03-26T22:42:37.782Z,22.33
2019-03-26T22:45:08.868Z,28.20
2019-03-26T22:47:38.755Z,26.20
2019-03-26T22:50:08.601Z,26.13
2019-03-26T22:52:37.157Z,23.40
2019-03-26T22:55:07.794Z,23.73
2019-03-26T22:57:36.383Z,23.27
2019-03-26T23:00:08.113Z,24.37
2019-03-26T23:02:36.620Z,28.77
2019-03-26T23:05:06.914Z,28.67
2019-03-26T23:07:35.399Z,24.10
2019-03-26T23:10:04.855Z,24.30
2019-03-26T23:12:33.278Z,24.40
2019-03-26T23:15:01.879Z,22.57
2019-03-26T23:17:30.359Z,22.67
2019-03-26T23:19:58.772Z,24.47
2019-03-26T23:22:27.188Z,21.80
2019-03-26T23:24:55.601Z,22.67
2019-03-26T23:27:24.016Z,25.57
2019-03-26T23:29:52.414Z,24.20
2019-03-26T23:32:20.849Z,23.70
2019-03-26T23:34:49.318Z,25.77
2019-03-26T23:37:17.737Z,24.70
2019-03-26T23:39:46.149Z,23.33
2019-03-26T23:42:14.561Z,23.47
2019-03-26T23:44:43.058Z,23.27
2019-03-26T23:47:11.464Z,22.87
2019-03-26T23:49:39.900Z,24.47
2019-03-26T23:52:08.403Z,23.47
2019-03-26T23:54:36.790Z,25.50
2019-03-26T23:57:05.184Z,25.60
2019-03-26T23:59:33.606Z,23.73
